sensor_id;sensor_type;location;lat;lon;timestamp;P1;durP1;ratioP1;P2;durP2;ratioP2
40955;SDS011;26687;48.254;11.454;2023-06-14T00:00:48;3.40;;;3.10;;
40955;SDS011;26687;48.254;11.454;2023-06-14T00:03:48;3.72;;;3.10;;
40955;SDS011;26687;48.254;11.454;2023-06-14T00:06:49;3.20;;;2.90;;
40955;SDS011;26687;48.254;11.454;2023-06-14T00:09:50;4.38;;;3.05;;
40955;SDS011;26687;48.254;11.454;2023-06-14T00:12:50;5.43;;;3.50;;
40955;SDS011;26687;48.254;11.454;2023-06-14T00:15:50;4.93;;;3.30;;
40955;SDS011;26687;48.254;11.454;2023-06-14T00:18:54;4.95;;;3.30;;
40955;SDS011;26687;48.254;11.454;2023-06-14T00:21:54;3.88;;;3.10;;
40955;SDS011;26687;48.254;11.454;2023-06-14T00:24:55;3.47;;;3.17;;
40955;SDS011;26687;48.254;11.454;2023-06-14T00:27:55;4.10;;;3.00;;
40955;SDS011;26687;48.254;11.454;2023-06-14T00:30:56;3.35;;;3.05;;
40955;SDS011;26687;48.254;11.454;2023-06-14T00:33:56;5.50;;;3.10;;
40955;SDS011;26687;48.254;11.454;2023-06-14T00:36:56;5.70;;;3.10;;
40955;SDS011;26687;48.254;11.454;2023-06-14T00:39:56;4.68;;;3.60;;
40955;SDS011;26687;48.254;11.454;2023-06-14T00:42:56;4.78;;;3.42;;
40955;SDS011;26687;48.254;11.454;2023-06-14T00:45:57;3.13;;;2.93;;
40955;SDS011;26687;48.254;11.454;2023-06-14T00:48:57;3.50;;;3.00;;
40955;SDS011;26687;48.254;11.454;2023-06-14T00:51:58;4.03;;;3.63;;
40955;SDS011;26687;48.254;11.454;2023-06-14T00:54:58;3.33;;;3.03;;
40955;SDS011;26687;48.254;11.454;2023-06-14T00:57:59;3.90;;;3.50;;
40955;SDS011;26687;48.254;11.454;2023-06-14T01:00:59;3.30;;;3.00;;
40955;SDS011;26687;48.254;11.454;2023-06-14T01:03:59;3.90;;;3.50;;
40955;SDS011;26687;48.254;11.454;2023-06-14T01:07:02;4.43;;;3.15;;
40955;SDS011;26687;48.254;11.454;2023-06-14T01:10:25;5.25;;;3.25;;
40955;SDS011;26687;48.254;11.454;2023-06-14T01:13:33;4.78;;;3.47;;
40955;SDS011;26687;48.254;11.454;2023-06-14T01:16:33;5.15;;;3.47;;
40955;SDS011;26687;48.254;11.454;2023-06-14T01:19:36;4.55;;;3.40;;
40955;SDS011;26687;48.254;11.454;2023-06-14T01:22:36;3.60;;;3.30;;
40955;SDS011;26687;48.254;11.454;2023-06-14T01:25:36;3.75;;;3.45;;
40955;SDS011;26687;48.254;11.454;2023-06-14T01:28:37;3.65;;;3.30;;
40955;SDS011;26687;48.254;11.454;2023-06-14T01:31:37;3.75;;;3.35;;
40955;SDS011;26687;48.254;11.454;2023-06-14T01:34:41;4.50;;;3.55;;
40955;SDS011;26687;48.254;11.454;2023-06-14T01:37:42;3.90;;;3.15;;
40955;SDS011;26687;48.254;11.454;2023-06-14T01:40:43;3.42;;;3.13;;
40955;SDS011;26687;48.254;11.454;2023-06-14T01:43:44;3.50;;;3.20;;
40955;SDS011;26687;48.254;11.454;2023-06-14T01:46:45;3.83;;;3.53;;
40955;SDS011;26687;48.254;11.454;2023-06-14T01:49:46;3.90;;;3.00;;
40955;SDS011;26687;48.254;11.454;2023-06-14T01:52:46;4.32;;;3.40;;
40955;SDS011;26687;48.254;11.454;2023-06-14T01:55:46;5.43;;;3.90;;
40955;SDS011;26687;48.254;11.454;2023-06-14T01:58:48;4.28;;;3.30;;
40955;SDS011;26687;48.254;11.454;2023-06-14T02:01:49;3.75;;;3.45;;
40955;SDS011;26687;48.254;11.454;2023-06-14T02:04:50;4.20;;;3.85;;
40955;SDS011;26687;48.254;11.454;2023-06-14T02:07:50;5.55;;;3.08;;
40955;SDS011;26687;48.254;11.454;2023-06-14T02:10:51;3.90;;;3.50;;
40955;SDS011;26687;48.254;11.454;2023-06-14T02:13:51;6.03;;;3.65;;
40955;SDS011;26687;48.254;11.454;2023-06-14T02:16:51;4.68;;;3.50;;
40955;SDS011;26687;48.254;11.454;2023-06-14T02:19:52;3.42;;;3.13;;
40955;SDS011;26687;48.254;11.454;2023-06-14T02:22:52;3.80;;;3.50;;
40955;SDS011;26687;48.254;11.454;2023-06-14T02:25:53;3.87;;;3.07;;
40955;SDS011;26687;48.254;11.454;2023-06-14T02:28:53;4.50;;;3.50;;
40955;SDS011;26687;48.254;11.454;2023-06-14T02:31:53;4.07;;;3.67;;
40955;SDS011;26687;48.254;11.454;2023-06-14T02:34:53;5.75;;;3.80;;
40955;SDS011;26687;48.254;11.454;2023-06-14T02:37:54;3.80;;;3.47;;
40955;SDS011;26687;48.254;11.454;2023-06-14T02:40:54;6.70;;;3.45;;
40955;SDS011;26687;48.254;11.454;2023-06-14T02:43:55;4.80;;;3.83;;
40955;SDS011;26687;48.254;11.454;2023-06-14T02:46:56;6.43;;;3.88;;
40955;SDS011;26687;48.254;11.454;2023-06-14T02:49:56;6.70;;;3.80;;
40955;SDS011;26687;48.254;11.454;2023-06-14T02:52:56;5.00;;;3.57;;
40955;SDS011;26687;48.254;11.454;2023-06-14T02:55:56;3.83;;;3.50;;
40955;SDS011;26687;48.254;11.454;2023-06-14T02:58:57;5.60;;;3.95;;
40955;SDS011;26687;48.254;11.454;2023-06-14T03:01:58;4.55;;;3.90;;
40955;SDS011;26687;48.254;11.454;2023-06-14T03:04:58;4.20;;;3.65;;
40955;SDS011;26687;48.254;11.454;2023-06-14T03:08:01;4.30;;;3.90;;
40955;SDS011;26687;48.254;11.454;2023-06-14T03:11:02;5.00;;;3.80;;
40955;SDS011;26687;48.254;11.454;2023-06-14T03:14:02;4.55;;;4.10;;
40955;SDS011;26687;48.254;11.454;2023-06-14T03:17:06;6.30;;;4.35;;
40955;SDS011;26687;48.254;11.454;2023-06-14T03:20:08;4.28;;;3.72;;
40955;SDS011;26687;48.254;11.454;2023-06-14T03:23:08;4.93;;;3.25;;
40955;SDS011;26687;48.254;11.454;2023-06-14T03:26:09;5.28;;;4.03;;
40955;SDS011;26687;48.254;11.454;2023-06-14T03:29:09;4.50;;;3.97;;
40955;SDS011;26687;48.254;11.454;2023-06-14T03:32:09;7.28;;;3.78;;
40955;SDS011;26687;48.254;11.454;2023-06-14T03:35:09;4.47;;;4.07;;
40955;SDS011;26687;48.254;11.454;2023-06-14T03:38:16;4.00;;;3.60;;
40955;SDS011;26687;48.254;11.454;2023-06-14T03:41:17;5.03;;;4.00;;
40955;SDS011;26687;48.254;11.454;2023-06-14T03:44:17;5.20;;;3.70;;
40955;SDS011;26687;48.254;11.454;2023-06-14T03:47:18;4.50;;;4.10;;
40955;SDS011;26687;48.254;11.454;2023-06-14T03:50:18;7.88;;;3.95;;
40955;SDS011;26687;48.254;11.454;2023-06-14T03:53:18;6.07;;;3.88;;
40955;SDS011;26687;48.254;11.454;2023-06-14T03:56:20;4.70;;;4.07;;
40955;SDS011;26687;48.254;11.454;2023-06-14T03:59:21;5.20;;;4.00;;
40955;SDS011;26687;48.254;11.454;2023-06-14T04:02:21;9.48;;;4.00;;
40955;SDS011;26687;48.254;11.454;2023-06-14T04:05:22;5.82;;;4.20;;
40955;SDS011;26687;48.254;11.454;2023-06-14T04:08:26;5.03;;;4.22;;
40955;SDS011;26687;48.254;11.454;2023-06-14T04:11:26;5.93;;;4.20;;
40955;SDS011;26687;48.254;11.454;2023-06-14T04:14:26;5.13;;;3.93;;
40955;SDS011;26687;48.254;11.454;2023-06-14T04:17:27;5.20;;;4.20;;
40955;SDS011;26687;48.254;11.454;2023-06-14T04:20:27;4.87;;;4.20;;
40955;SDS011;26687;48.254;11.454;2023-06-14T04:23:27;4.30;;;3.90;;
40955;SDS011;26687;48.254;11.454;2023-06-14T04:26:28;5.78;;;3.97;;
40955;SDS011;26687;48.254;11.454;2023-06-14T04:29:29;4.57;;;4.13;;
40955;SDS011;26687;48.254;11.454;2023-06-14T04:32:31;4.85;;;4.43;;
40955;SDS011;26687;48.254;11.454;2023-06-14T04:35:33;8.50;;;4.32;;
40955;SDS011;26687;48.254;11.454;2023-06-14T04:38:35;6.00;;;4.03;;
40955;SDS011;26687;48.254;11.454;2023-06-14T04:41:35;5.90;;;4.13;;
40955;SDS011;26687;48.254;11.454;2023-06-14T04:44:37;4.97;;;4.57;;
40955;SDS011;26687;48.254;11.454;2023-06-14T04:47:39;6.63;;;4.18;;
40955;SDS011;26687;48.254;11.454;2023-06-14T04:50:40;5.60;;;4.07;;
40955;SDS011;26687;48.254;11.454;2023-06-14T04:53:41;5.10;;;4.40;;
40955;SDS011;26687;48.254;11.454;2023-06-14T04:56:41;5.13;;;4.27;;
40955;SDS011;26687;48.254;11.454;2023-06-14T04:59:42;5.97;;;4.03;;
40955;SDS011;26687;48.254;11.454;2023-06-14T05:02:44;4.20;;;3.80;;
40955;SDS011;26687;48.254;11.454;2023-06-14T05:05:44;4.47;;;4.07;;
40955;SDS011;26687;48.254;11.454;2023-06-14T05:08:45;5.38;;;3.47;;
40955;SDS011;26687;48.254;11.454;2023-06-14T05:11:45;5.68;;;3.70;;
40955;SDS011;26687;48.254;11.454;2023-06-14T05:14:45;4.10;;;3.80;;
40955;SDS011;26687;48.254;11.454;2023-06-14T05:17:45;8.00;;;3.80;;
40955;SDS011;26687;48.254;11.454;2023-06-14T05:20:53;5.45;;;3.90;;
40955;SDS011;26687;48.254;11.454;2023-06-14T05:23:53;4.40;;;3.95;;
40955;SDS011;26687;48.254;11.454;2023-06-14T05:26:53;5.38;;;3.90;;
40955;SDS011;26687;48.254;11.454;2023-06-14T05:29:54;18.48;;;7.05;;
40955;SDS011;26687;48.254;11.454;2023-06-14T05:32:58;8.00;;;5.53;;
40955;SDS011;26687;48.254;11.454;2023-06-14T05:35:58;4.90;;;4.05;;
40955;SDS011;26687;48.254;11.454;2023-06-14T05:38:59;5.40;;;3.97;;
40955;SDS011;26687;48.254;11.454;2023-06-14T05:41:59;5.65;;;4.30;;
40955;SDS011;26687;48.254;11.454;2023-06-14T05:45:00;4.40;;;4.00;;
40955;SDS011;26687;48.254;11.454;2023-06-14T05:48:00;6.60;;;4.30;;
40955;SDS011;26687;48.254;11.454;2023-06-14T05:51:00;4.47;;;3.90;;
40955;SDS011;26687;48.254;11.454;2023-06-14T05:54:00;5.55;;;4.15;;
40955;SDS011;26687;48.254;11.454;2023-06-14T05:57:01;6.67;;;3.80;;
40955;SDS011;26687;48.254;11.454;2023-06-14T06:00:01;6.45;;;3.80;;
40955;SDS011;26687;48.254;11.454;2023-06-14T06:03:09;3.95;;;3.65;;
40955;SDS011;26687;48.254;11.454;2023-06-14T06:06:11;8.02;;;3.63;;
40955;SDS011;26687;48.254;11.454;2023-06-14T06:09:12;6.03;;;3.63;;
40955;SDS011;26687;48.254;11.454;2023-06-14T06:12:14;4.90;;;3.47;;
40955;SDS011;26687;48.254;11.454;2023-06-14T06:15:14;4.13;;;2.95;;
40955;SDS011;26687;48.254;11.454;2023-06-14T06:18:15;4.88;;;3.15;;
40955;SDS011;26687;48.254;11.454;2023-06-14T06:21:15;6.10;;;3.53;;
40955;SDS011;26687;48.254;11.454;2023-06-14T06:24:16;3.42;;;3.13;;
40955;SDS011;26687;48.254;11.454;2023-06-14T06:27:16;3.95;;;2.90;;
40955;SDS011;26687;48.254;11.454;2023-06-14T06:30:19;4.33;;;3.03;;
40955;SDS011;26687;48.254;11.454;2023-06-14T06:33:19;6.18;;;3.30;;
40955;SDS011;26687;48.254;11.454;2023-06-14T06:36:20;6.40;;;3.05;;
40955;SDS011;26687;48.254;11.454;2023-06-14T06:39:21;5.05;;;3.20;;
40955;SDS011;26687;48.254;11.454;2023-06-14T06:42:21;4.37;;;3.30;;
40955;SDS011;26687;48.254;11.454;2023-06-14T06:45:21;3.67;;;3.20;;
40955;SDS011;26687;48.254;11.454;2023-06-14T06:48:23;4.25;;;3.30;;
40955;SDS011;26687;48.254;11.454;2023-06-14T06:51:23;3.83;;;3.07;;
40955;SDS011;26687;48.254;11.454;2023-06-14T06:54:23;4.87;;;3.03;;
40955;SDS011;26687;48.254;11.454;2023-06-14T06:57:23;3.70;;;3.00;;
40955;SDS011;26687;48.254;11.454;2023-06-14T07:00:24;3.95;;;3.45;;
40955;SDS011;26687;48.254;11.454;2023-06-14T07:03:24;3.67;;;3.03;;
40955;SDS011;26687;48.254;11.454;2023-06-14T07:06:24;4.93;;;2.90;;
40955;SDS011;26687;48.254;11.454;2023-06-14T07:09:27;3.15;;;2.88;;
40955;SDS011;26687;48.254;11.454;2023-06-14T07:12:27;4.73;;;3.10;;
40955;SDS011;26687;48.254;11.454;2023-06-14T07:15:27;4.90;;;3.17;;
40955;SDS011;26687;48.254;11.454;2023-06-14T07:18:27;6.07;;;3.03;;
40955;SDS011;26687;48.254;11.454;2023-06-14T07:21:27;5.13;;;3.05;;
40955;SDS011;26687;48.254;11.454;2023-06-14T07:24:28;5.63;;;3.10;;
40955;SDS011;26687;48.254;11.454;2023-06-14T07:27:29;4.50;;;2.95;;
40955;SDS011;26687;48.254;11.454;2023-06-14T07:30:29;5.45;;;2.88;;
40955;SDS011;26687;48.254;11.454;2023-06-14T07:33:30;4.03;;;2.90;;
40955;SDS011;26687;48.254;11.454;2023-06-14T07:36:30;4.05;;;2.80;;
40955;SDS011;26687;48.254;11.454;2023-06-14T07:39:30;6.80;;;3.13;;
40955;SDS011;26687;48.254;11.454;2023-06-14T07:42:30;6.25;;;3.10;;
40955;SDS011;26687;48.254;11.454;2023-06-14T07:45:30;4.85;;;3.47;;
40955;SDS011;26687;48.254;11.454;2023-06-14T07:48:31;5.07;;;2.80;;
40955;SDS011;26687;48.254;11.454;2023-06-14T07:51:31;3.93;;;2.93;;
40955;SDS011;26687;48.254;11.454;2023-06-14T07:54:31;4.10;;;2.93;;
40955;SDS011;26687;48.254;11.454;2023-06-14T07:57:32;3.17;;;2.88;;
40955;SDS011;26687;48.254;11.454;2023-06-14T08:00:32;6.32;;;2.97;;
40955;SDS011;26687;48.254;11.454;2023-06-14T08:03:33;4.30;;;2.85;;
40955;SDS011;26687;48.254;11.454;2023-06-14T08:06:33;4.03;;;3.00;;
40955;SDS011;26687;48.254;11.454;2023-06-14T08:09:34;3.20;;;2.60;;
40955;SDS011;26687;48.254;11.454;2023-06-14T08:12:35;4.50;;;2.45;;
40955;SDS011;26687;48.254;11.454;2023-06-14T08:15:36;4.22;;;2.45;;
40955;SDS011;26687;48.254;11.454;2023-06-14T08:18:36;3.73;;;2.60;;
40955;SDS011;26687;48.254;11.454;2023-06-14T08:21:37;6.67;;;2.63;;
40955;SDS011;26687;48.254;11.454;2023-06-14T08:24:37;2.87;;;2.47;;
40955;SDS011;26687;48.254;11.454;2023-06-14T08:27:37;3.42;;;2.55;;
40955;SDS011;26687;48.254;11.454;2023-06-14T08:30:37;2.67;;;2.47;;
40955;SDS011;26687;48.254;11.454;2023-06-14T08:33:38;4.43;;;2.53;;
40955;SDS011;26687;48.254;11.454;2023-06-14T08:36:39;4.57;;;2.30;;
40955;SDS011;26687;48.254;11.454;2023-06-14T08:39:39;4.75;;;2.42;;
40955;SDS011;26687;48.254;11.454;2023-06-14T08:42:39;5.28;;;2.70;;
40955;SDS011;26687;48.254;11.454;2023-06-14T08:45:40;4.73;;;2.53;;
40955;SDS011;26687;48.254;11.454;2023-06-14T08:48:40;5.30;;;2.33;;
40955;SDS011;26687;48.254;11.454;2023-06-14T08:51:40;4.60;;;2.23;;
40955;SDS011;26687;48.254;11.454;2023-06-14T08:54:41;2.83;;;2.35;;
40955;SDS011;26687;48.254;11.454;2023-06-14T08:57:44;4.18;;;2.45;;
40955;SDS011;26687;48.254;11.454;2023-06-14T09:00:45;6.13;;;2.83;;
40955;SDS011;26687;48.254;11.454;2023-06-14T09:03:46;4.10;;;2.50;;
40955;SDS011;26687;48.254;11.454;2023-06-14T09:06:48;3.90;;;2.20;;
40955;SDS011;26687;48.254;11.454;2023-06-14T09:10:05;5.95;;;2.40;;
40955;SDS011;26687;48.254;11.454;2023-06-14T09:13:05;3.65;;;2.20;;
40955;SDS011;26687;48.254;11.454;2023-06-14T09:16:06;2.75;;;2.30;;
40955;SDS011;26687;48.254;11.454;2023-06-14T09:19:07;2.85;;;2.40;;
40955;SDS011;26687;48.254;11.454;2023-06-14T09:22:07;4.28;;;2.67;;
40955;SDS011;26687;48.254;11.454;2023-06-14T09:25:11;5.03;;;2.28;;
40955;SDS011;26687;48.254;11.454;2023-06-14T09:28:15;2.92;;;2.45;;
40955;SDS011;26687;48.254;11.454;2023-06-14T09:31:16;4.70;;;2.35;;
40955;SDS011;26687;48.254;11.454;2023-06-14T09:34:17;4.80;;;2.80;;
40955;SDS011;26687;48.254;11.454;2023-06-14T09:37:27;4.13;;;2.47;;
40955;SDS011;26687;48.254;11.454;2023-06-14T09:40:28;3.80;;;2.58;;
40955;SDS011;26687;48.254;11.454;2023-06-14T09:43:28;5.68;;;2.65;;
40955;SDS011;26687;48.254;11.454;2023-06-14T09:46:29;2.53;;;2.30;;
40955;SDS011;26687;48.254;11.454;2023-06-14T09:49:29;2.70;;;2.50;;
40955;SDS011;26687;48.254;11.454;2023-06-14T09:52:29;4.93;;;2.40;;
40955;SDS011;26687;48.254;11.454;2023-06-14T09:55:31;3.45;;;2.45;;
40955;SDS011;26687;48.254;11.454;2023-06-14T09:58:34;3.20;;;2.40;;
40955;SDS011;26687;48.254;11.454;2023-06-14T10:01:39;5.78;;;2.45;;
40955;SDS011;26687;48.254;11.454;2023-06-14T10:04:43;2.50;;;2.20;;
40955;SDS011;26687;48.254;11.454;2023-06-14T10:07:56;3.35;;;2.10;;
40955;SDS011;26687;48.254;11.454;2023-06-14T10:11:00;2.47;;;2.25;;
40955;SDS011;26687;48.254;11.454;2023-06-14T10:14:00;3.77;;;2.47;;
40955;SDS011;26687;48.254;11.454;2023-06-14T10:20:14;2.47;;;2.27;;
40955;SDS011;26687;48.254;11.454;2023-06-14T10:23:21;3.05;;;2.33;;
40955;SDS011;26687;48.254;11.454;2023-06-14T10:26:23;2.42;;;2.08;;
40955;SDS011;26687;48.254;11.454;2023-06-14T10:29:23;4.22;;;2.15;;
40955;SDS011;26687;48.254;11.454;2023-06-14T10:32:23;4.40;;;2.43;;
40955;SDS011;26687;48.254;11.454;2023-06-14T10:35:24;2.30;;;2.20;;
40955;SDS011;26687;48.254;11.454;2023-06-14T10:38:29;4.65;;;2.30;;
40955;SDS011;26687;48.254;11.454;2023-06-14T10:41:31;2.72;;;2.53;;
40955;SDS011;26687;48.254;11.454;2023-06-14T10:44:32;3.28;;;2.50;;
40955;SDS011;26687;48.254;11.454;2023-06-14T10:47:33;2.58;;;2.38;;
40955;SDS011;26687;48.254;11.454;2023-06-14T10:50:35;5.05;;;2.40;;
40955;SDS011;26687;48.254;11.454;2023-06-14T10:53:39;3.25;;;2.50;;
40955;SDS011;26687;48.254;11.454;2023-06-14T10:56:46;4.25;;;2.85;;
40955;SDS011;26687;48.254;11.454;2023-06-14T10:59:50;2.53;;;2.28;;
40955;SDS011;26687;48.254;11.454;2023-06-14T11:06:00;3.17;;;2.83;;
40955;SDS011;26687;48.254;11.454;2023-06-14T11:09:21;2.60;;;2.40;;
40955;SDS011;26687;48.254;11.454;2023-06-14T11:12:31;4.35;;;2.30;;
40955;SDS011;26687;48.254;11.454;2023-06-14T11:15:32;3.55;;;2.03;;
40955;SDS011;26687;48.254;11.454;2023-06-14T11:18:33;4.18;;;2.90;;
40955;SDS011;26687;48.254;11.454;2023-06-14T11:21:33;3.30;;;2.88;;
40955;SDS011;26687;48.254;11.454;2023-06-14T11:24:34;3.00;;;2.80;;
40955;SDS011;26687;48.254;11.454;2023-06-14T11:27:34;4.60;;;3.08;;
40955;SDS011;26687;48.254;11.454;2023-06-14T11:30:34;4.82;;;2.50;;
40955;SDS011;26687;48.254;11.454;2023-06-14T11:33:35;2.80;;;2.50;;
40955;SDS011;26687;48.254;11.454;2023-06-14T11:36:35;4.17;;;2.00;;
40955;SDS011;26687;48.254;11.454;2023-06-14T11:39:35;3.93;;;2.57;;
40955;SDS011;26687;48.254;11.454;2023-06-14T11:42:36;4.22;;;2.55;;
40955;SDS011;26687;48.254;11.454;2023-06-14T11:45:36;3.72;;;2.50;;
40955;SDS011;26687;48.254;11.454;2023-06-14T11:48:38;6.68;;;2.85;;
40955;SDS011;26687;48.254;11.454;2023-06-14T11:51:38;3.75;;;2.67;;
40955;SDS011;26687;48.254;11.454;2023-06-14T11:54:39;3.20;;;2.37;;
40955;SDS011;26687;48.254;11.454;2023-06-14T11:57:42;4.45;;;2.85;;
40955;SDS011;26687;48.254;11.454;2023-06-14T12:00:43;2.70;;;2.50;;
40955;SDS011;26687;48.254;11.454;2023-06-14T12:03:47;4.20;;;2.80;;
40955;SDS011;26687;48.254;11.454;2023-06-14T12:06:48;2.97;;;2.17;;
40955;SDS011;26687;48.254;11.454;2023-06-14T12:12:58;6.05;;;2.78;;
40955;SDS011;26687;48.254;11.454;2023-06-14T12:15:59;3.50;;;2.45;;
40955;SDS011;26687;48.254;11.454;2023-06-14T12:19:00;2.75;;;2.50;;
40955;SDS011;26687;48.254;11.454;2023-06-14T12:22:03;2.97;;;2.70;;
40955;SDS011;26687;48.254;11.454;2023-06-14T12:28:06;5.57;;;2.47;;
40955;SDS011;26687;48.254;11.454;2023-06-14T12:31:06;5.25;;;2.50;;
40955;SDS011;26687;48.254;11.454;2023-06-14T12:34:07;3.40;;;2.30;;
40955;SDS011;26687;48.254;11.454;2023-06-14T12:37:07;2.95;;;2.65;;
40955;SDS011;26687;48.254;11.454;2023-06-14T12:40:07;3.38;;;2.30;;
40955;SDS011;26687;48.254;11.454;2023-06-14T12:43:08;3.13;;;2.50;;
40955;SDS011;26687;48.254;11.454;2023-06-14T12:46:08;4.20;;;2.78;;
40955;SDS011;26687;48.254;11.454;2023-06-14T12:49:11;2.90;;;2.60;;
40955;SDS011;26687;48.254;11.454;2023-06-14T12:52:12;3.03;;;2.08;;
40955;SDS011;26687;48.254;11.454;2023-06-14T12:55:12;3.15;;;2.55;;
40955;SDS011;26687;48.254;11.454;2023-06-14T12:58:12;3.77;;;2.47;;
40955;SDS011;26687;48.254;11.454;2023-06-14T13:01:13;2.67;;;2.47;;
40955;SDS011;26687;48.254;11.454;2023-06-14T13:04:14;3.90;;;2.43;;
40955;SDS011;26687;48.254;11.454;2023-06-14T13:07:14;3.45;;;2.60;;
40955;SDS011;26687;48.254;11.454;2023-06-14T13:10:15;2.67;;;2.47;;
40955;SDS011;26687;48.254;11.454;2023-06-14T13:13:15;2.67;;;2.38;;
40955;SDS011;26687;48.254;11.454;2023-06-14T13:16:15;3.63;;;2.03;;
40955;SDS011;26687;48.254;11.454;2023-06-14T13:19:16;4.10;;;2.55;;
40955;SDS011;26687;48.254;11.454;2023-06-14T13:22:16;2.47;;;2.27;;
40955;SDS011;26687;48.254;11.454;2023-06-14T13:25:16;4.40;;;2.40;;
40955;SDS011;26687;48.254;11.454;2023-06-14T13:28:16;2.53;;;2.33;;
40955;SDS011;26687;48.254;11.454;2023-06-14T13:31:17;2.90;;;2.47;;
40955;SDS011;26687;48.254;11.454;2023-06-14T13:34:17;2.88;;;2.25;;
40955;SDS011;26687;48.254;11.454;2023-06-14T13:37:17;4.77;;;2.60;;
40955;SDS011;26687;48.254;11.454;2023-06-14T13:40:17;2.30;;;2.10;;
40955;SDS011;26687;48.254;11.454;2023-06-14T13:43:18;2.40;;;2.20;;
40955;SDS011;26687;48.254;11.454;2023-06-14T13:46:18;3.10;;;2.03;;
40955;SDS011;26687;48.254;11.454;2023-06-14T13:49:18;2.80;;;2.25;;
40955;SDS011;26687;48.254;11.454;2023-06-14T13:52:18;4.10;;;2.58;;
40955;SDS011;26687;48.254;11.454;2023-06-14T13:55:18;3.33;;;2.60;;
40955;SDS011;26687;48.254;11.454;2023-06-14T13:58:19;3.47;;;2.47;;
40955;SDS011;26687;48.254;11.454;2023-06-14T14:01:19;3.17;;;2.42;;
40955;SDS011;26687;48.254;11.454;2023-06-14T14:04:22;5.10;;;2.50;;
40955;SDS011;26687;48.254;11.454;2023-06-14T14:07:23;2.90;;;2.50;;
40955;SDS011;26687;48.254;11.454;2023-06-14T14:10:24;2.73;;;2.47;;
40955;SDS011;26687;48.254;11.454;2023-06-14T14:13:25;3.25;;;2.50;;
40955;SDS011;26687;48.254;11.454;2023-06-14T14:16:25;3.10;;;2.33;;
40955;SDS011;26687;48.254;11.454;2023-06-14T14:19:25;5.40;;;2.53;;
40955;SDS011;26687;48.254;11.454;2023-06-14T14:22:26;4.23;;;2.33;;
40955;SDS011;26687;48.254;11.454;2023-06-14T14:25:26;2.55;;;2.35;;
40955;SDS011;26687;48.254;11.454;2023-06-14T14:28:26;3.15;;;2.38;;
40955;SDS011;26687;48.254;11.454;2023-06-14T14:31:26;3.17;;;2.25;;
40955;SDS011;26687;48.254;11.454;2023-06-14T14:34:26;2.80;;;2.45;;
40955;SDS011;26687;48.254;11.454;2023-06-14T14:37:27;3.27;;;2.50;;
40955;SDS011;26687;48.254;11.454;2023-06-14T14:40:27;2.95;;;2.22;;
40955;SDS011;26687;48.254;11.454;2023-06-14T14:43:27;3.17;;;2.57;;
40955;SDS011;26687;48.254;11.454;2023-06-14T14:46:30;3.05;;;2.28;;
40955;SDS011;26687;48.254;11.454;2023-06-14T14:49:31;2.53;;;2.33;;
40955;SDS011;26687;48.254;11.454;2023-06-14T14:52:31;3.22;;;2.10;;
40955;SDS011;26687;48.254;11.454;2023-06-14T14:55:31;2.60;;;2.40;;
40955;SDS011;26687;48.254;11.454;2023-06-14T14:58:34;2.00;;;1.90;;
40955;SDS011;26687;48.254;11.454;2023-06-14T15:01:34;6.70;;;2.67;;
40955;SDS011;26687;48.254;11.454;2023-06-14T15:04:35;2.38;;;2.17;;
40955;SDS011;26687;48.254;11.454;2023-06-14T15:07:35;2.95;;;2.45;;
40955;SDS011;26687;48.254;11.454;2023-06-14T15:10:35;3.43;;;2.60;;
40955;SDS011;26687;48.254;11.454;2023-06-14T15:13:35;2.30;;;2.10;;
40955;SDS011;26687;48.254;11.454;2023-06-14T15:16:35;3.53;;;2.70;;
40955;SDS011;26687;48.254;11.454;2023-06-14T15:19:36;4.95;;;2.38;;
40955;SDS011;26687;48.254;11.454;2023-06-14T15:22:36;2.65;;;2.30;;
40955;SDS011;26687;48.254;11.454;2023-06-14T15:25:36;2.65;;;2.45;;
40955;SDS011;26687;48.254;11.454;2023-06-14T15:28:36;3.35;;;2.45;;
40955;SDS011;26687;48.254;11.454;2023-06-14T15:31:37;2.60;;;2.40;;
40955;SDS011;26687;48.254;11.454;2023-06-14T15:34:37;3.30;;;2.30;;
40955;SDS011;26687;48.254;11.454;2023-06-14T15:37:39;5.15;;;2.22;;
40955;SDS011;26687;48.254;11.454;2023-06-14T15:40:39;2.65;;;2.10;;
40955;SDS011;26687;48.254;11.454;2023-06-14T15:43:39;4.63;;;2.30;;
40955;SDS011;26687;48.254;11.454;2023-06-14T15:46:39;3.72;;;2.53;;
40955;SDS011;26687;48.254;11.454;2023-06-14T15:49:40;2.42;;;2.20;;
40955;SDS011;26687;48.254;11.454;2023-06-14T15:52:40;4.05;;;2.22;;
40955;SDS011;26687;48.254;11.454;2023-06-14T15:55:40;2.63;;;2.23;;
40955;SDS011;26687;48.254;11.454;2023-06-14T15:58:40;3.20;;;2.43;;
40955;SDS011;26687;48.254;11.454;2023-06-14T16:01:40;2.60;;;2.13;;
40955;SDS011;26687;48.254;11.454;2023-06-14T16:04:41;2.78;;;2.58;;
40955;SDS011;26687;48.254;11.454;2023-06-14T16:07:41;4.07;;;2.65;;
40955;SDS011;26687;48.254;11.454;2023-06-14T16:10:41;3.07;;;2.83;;
40955;SDS011;26687;48.254;11.454;2023-06-14T16:13:41;5.50;;;2.87;;
40955;SDS011;26687;48.254;11.454;2023-06-14T16:16:42;2.60;;;2.40;;
40955;SDS011;26687;48.254;11.454;2023-06-14T16:19:42;2.50;;;2.30;;
40955;SDS011;26687;48.254;11.454;2023-06-14T16:22:42;3.40;;;2.40;;
40955;SDS011;26687;48.254;11.454;2023-06-14T16:25:43;5.80;;;2.70;;
40955;SDS011;26687;48.254;11.454;2023-06-14T16:28:43;3.23;;;2.33;;
40955;SDS011;26687;48.254;11.454;2023-06-14T16:31:43;2.90;;;2.60;;
40955;SDS011;26687;48.254;11.454;2023-06-14T16:34:44;5.18;;;2.72;;
40955;SDS011;26687;48.254;11.454;2023-06-14T16:37:44;2.80;;;2.60;;
40955;SDS011;26687;48.254;11.454;2023-06-14T16:40:44;3.40;;;2.60;;
40955;SDS011;26687;48.254;11.454;2023-06-14T16:43:44;3.53;;;2.53;;
40955;SDS011;26687;48.254;11.454;2023-06-14T16:46:45;4.20;;;2.80;;
40955;SDS011;26687;48.254;11.454;2023-06-14T16:49:45;3.03;;;2.73;;
40955;SDS011;26687;48.254;11.454;2023-06-14T16:52:45;3.92;;;2.55;;
40955;SDS011;26687;48.254;11.454;2023-06-14T16:55:45;4.10;;;2.70;;
40955;SDS011;26687;48.254;11.454;2023-06-14T16:58:46;2.80;;;2.60;;
40955;SDS011;26687;48.254;11.454;2023-06-14T17:01:49;4.87;;;2.47;;
40955;SDS011;26687;48.254;11.454;2023-06-14T17:04:49;4.60;;;2.80;;
40955;SDS011;26687;48.254;11.454;2023-06-14T17:07:49;3.20;;;2.50;;
40955;SDS011;26687;48.254;11.454;2023-06-14T17:10:50;2.90;;;2.65;;
40955;SDS011;26687;48.254;11.454;2023-06-14T17:13:50;2.88;;;2.53;;
40955;SDS011;26687;48.254;11.454;2023-06-14T17:16:50;2.60;;;2.40;;
40955;SDS011;26687;48.254;11.454;2023-06-14T17:19:51;3.23;;;2.90;;
40955;SDS011;26687;48.254;11.454;2023-06-14T17:22:52;3.65;;;2.63;;
40955;SDS011;26687;48.254;11.454;2023-06-14T17:25:52;3.00;;;2.80;;
40955;SDS011;26687;48.254;11.454;2023-06-14T17:28:53;3.40;;;2.70;;
40955;SDS011;26687;48.254;11.454;2023-06-14T17:31:53;4.57;;;2.70;;
40955;SDS011;26687;48.254;11.454;2023-06-14T17:34:54;2.88;;;2.30;;
40955;SDS011;26687;48.254;11.454;2023-06-14T17:37:54;3.88;;;2.80;;
40955;SDS011;26687;48.254;11.454;2023-06-14T17:40:54;3.30;;;2.60;;
40955;SDS011;26687;48.254;11.454;2023-06-14T17:43:54;3.73;;;2.60;;
40955;SDS011;26687;48.254;11.454;2023-06-14T17:46:54;3.10;;;2.80;;
40955;SDS011;26687;48.254;11.454;2023-06-14T17:49:55;2.60;;;2.40;;
40955;SDS011;26687;48.254;11.454;2023-06-14T17:52:56;4.07;;;3.10;;
40955;SDS011;26687;48.254;11.454;2023-06-14T17:55:56;4.90;;;2.87;;
40955;SDS011;26687;48.254;11.454;2023-06-14T17:58:56;3.70;;;2.63;;
40955;SDS011;26687;48.254;11.454;2023-06-14T18:01:56;4.47;;;2.50;;
40955;SDS011;26687;48.254;11.454;2023-06-14T18:04:57;4.70;;;2.60;;